McMahan, Texas
Current Conditions -  °F | °C
As of 9:52 AM on Tuesday 21 Oct 2014 (Local Time) from KHYI Reporting Station
Clear Clear  
Wind Chill: 72°   Ceiling: Unl
Heat Index: 72°   Visibility: 10mi
Dew Point: 55°   Wind: 7mph
Humidity: 57%   Direction: 50°NE
Pressure: 30.1"   Gusts: NA
Location:  29.8789°N, 97.5317°W
Report Text: KHYI 211452Z 05006KT 10SM SKC 22/13 A3010
Loading
Personal Weather Stations






























Interactive Weather Map
Tropical Storm Tracking
New forecast layout! Learn more

10-Day Weather Forecast

Advertisements
Track Severe Weather on mobile